Time;durP1;ratioP1;P1;durP2;ratioP2;P2;SDS_P1;SDS_P2;PMS_P1;PMS_P2;Temp;Humidity;BMP_temperature;BMP_pressure;BME280_temperature;BME280_humidity;BME280_pressure;Samples;Min_cycle;Max_cycle;Signal;HPM_P1;HPM_P2
2022/05/23 00:02:16;;;;;;;1.73;1.40;;;;;;;14.57;100.00;95168.22;5010846;28;24440;-74
2022/05/23 00:04:43;;;;;;;2.83;1.60;;;;;;;14.53;100.00;95164.25;5010991;28;24494;-74
2022/05/23 00:07:13;;;;;;;2.15;1.40;;;;;;;14.57;99.30;95159.59;5011139;28;24877;-74
2022/05/23 00:09:41;;;;;;;2.90;1.35;;;;;;;14.61;99.70;95159.22;5025044;28;24435;-74
2022/05/23 00:12:09;;;;;;;2.53;1.30;;;;;;;14.68;95.65;95152.50;5029389;28;25267;-74
2022/05/23 00:14:35;;;;;;;2.33;1.45;;;;;;;14.57;96.42;95151.78;5030058;28;24438;-74
2022/05/23 00:17:02;;;;;;;1.67;1.27;;;;;;;14.45;98.10;95131.03;5022487;28;24495;-74
2022/05/23 00:19:30;;;;;;;2.20;1.10;;;;;;;14.48;95.19;95119.53;5010984;28;24515;-74
2022/05/23 00:21:56;;;;;;;1.67;1.23;;;;;;;14.29;97.53;95118.53;5011056;28;24444;-74
2022/05/23 00:24:23;;;;;;;1.85;1.20;;;;;;;14.25;97.23;95119.75;5010679;28;24436;-74
2022/05/23 00:26:51;;;;;;;2.40;1.35;;;;;;;14.21;97.18;95115.78;5010845;28;24483;-74
2022/05/23 00:29:19;;;;;;;2.67;1.27;;;;;;;13.94;100.00;95112.97;5018106;28;24786;-74
2022/05/23 00:37:10;;;;;;;5.97;1.30;;;;;;;13.75;100.00;95109.34;5019955;28;24790;-74
2022/05/23 00:39:36;;;;;;;1.73;1.45;;;;;;;13.66;100.00;95109.31;5025791;28;24485;-74
2022/05/23 00:44:55;;;;;;;2.70;1.20;;;;;;;13.72;100.00;95103.56;5010467;28;24574;-74
2022/05/23 00:47:23;;;;;;;2.23;1.37;;;;;;;13.79;100.00;95100.34;5022347;28;24482;-74
2022/05/23 00:49:50;;;;;;;3.67;1.40;;;;;;;13.85;100.00;95092.94;5013743;28;24917;-74
2022/05/23 00:52:21;;;;;;;1.52;1.20;;;;;;;13.89;100.00;95091.72;5011266;28;24846;-74
2022/05/23 00:54:50;;;;;;;3.67;1.50;;;;;;;13.89;100.00;95092.53;5010423;28;24470;-75
2022/05/23 00:57:21;;;;;;;1.52;1.30;;;;;;;13.90;100.00;95082.94;5010606;28;24419;-74
2022/05/23 00:59:49;;;;;;;1.80;1.25;;;;;;;13.89;100.00;95086.53;5025097;28;24846;-74
2022/05/23 01:02:17;;;;;;;2.35;1.40;;;;;;;13.89;100.00;95076.94;5011248;28;24443;-74
2022/05/23 01:04:44;;;;;;;2.58;1.20;;;;;;;14.13;98.71;95060.97;5011358;28;24436;-74
2022/05/23 01:07:12;;;;;;;1.60;1.15;;;;;;;14.17;98.52;95051.91;5025855;28;24988;-74
2022/05/23 01:09:39;;;;;;;2.27;1.40;;;;;;;13.76;100.00;95050.34;5020620;28;24439;-74
2022/05/23 01:12:06;;;;;;;1.88;1.30;;;;;;;13.57;100.00;95048.47;5014124;28;24994;-74
2022/05/23 01:14:48;;;;;;;2.30;1.48;;;;;;;13.60;100.00;95052.59;5029398;28;25028;-74
2022/05/23 01:17:15;;;;;;;4.15;1.50;;;;;;;13.65;100.00;95034.84;5015967;28;24494;-74
2022/05/23 01:19:42;;;;;;;2.42;1.45;;;;;;;13.60;100.00;95034.38;5032353;28;24941;-74
2022/05/23 01:22:18;;;;;;;2.33;1.40;;;;;;;13.29;100.00;95037.03;5016650;28;25008;-74
2022/05/23 01:24:51;;;;;;;1.50;1.20;;;;;;;13.20;100.00;95040.38;5013863;28;24468;-74
2022/05/23 01:27:19;;;;;;;1.93;1.30;;;;;;;13.29;100.00;95050.03;5022676;28;24443;-74
2022/05/23 01:29:46;;;;;;;5.55;1.58;;;;;;;13.35;100.00;95046.06;5033080;28;24436;-74
2022/05/23 01:32:13;;;;;;;2.28;1.60;;;;;;;13.37;100.00;95047.59;5017207;28;24443;-74
2022/05/23 01:34:42;;;;;;;4.90;1.38;;;;;;;13.37;100.00;95047.59;5014824;28;24443;-74
2022/05/23 01:37:08;;;;;;;1.85;1.35;;;;;;;13.51;100.00;95043.81;5013812;28;24455;-74
2022/05/23 01:39:35;;;;;;;2.63;1.60;;;;;;;13.54;100.00;95044.38;5028406;28;24428;-74
2022/05/23 01:42:01;;;;;;;1.25;1.13;;;;;;;13.58;100.00;95044.94;5016470;28;24503;-74
2022/05/23 01:44:29;;;;;;;5.90;1.48;;;;;;;13.60;100.00;95035.22;5032333;28;24444;-74
2022/05/23 01:46:55;;;;;;;1.83;1.40;;;;;;;13.59;100.00;95036.16;5023856;28;24439;-74
2022/05/23 01:49:22;;;;;;;8.47;1.70;;;;;;;13.56;100.00;95034.66;5029709;28;25001;-74
2022/05/23 01:51:49;;;;;;;3.87;1.20;;;;;;;13.59;100.00;95032.75;5016441;28;24472;-74
2022/05/23 01:54:15;;;;;;;1.52;1.20;;;;;;;13.60;100.00;95037.00;5013831;28;25119;-74
2022/05/23 01:56:42;;;;;;;2.58;1.50;;;;;;;13.59;100.00;95040.56;5013219;28;24436;-74
2022/05/23 02:01:54;;;;;;;2.00;1.60;;;;;;;13.61;100.00;95018.66;5023641;28;24546;-74
2022/05/23 02:04:20;;;;;;;4.32;1.45;;;;;;;13.65;100.00;95016.63;5015700;28;25011;-74
2022/05/23 02:06:47;;;;;;;2.20;1.42;;;;;;;13.66;100.00;95019.06;5032254;28;24443;-74
2022/05/23 02:09:13;;;;;;;1.83;1.53;;;;;;;13.67;100.00;95017.28;5022726;28;24443;-74
2022/05/23 02:11:40;;;;;;;1.60;1.35;;;;;;;13.69;100.00;95021.41;5026968;28;24771;-74
2022/05/23 02:14:07;;;;;;;2.05;1.35;;;;;;;13.63;100.00;95003.72;5015683;28;24439;-74
2022/05/23 02:16:33;;;;;;;2.58;1.58;;;;;;;13.65;100.00;95001.81;5026518;28;24997;-74
2022/05/23 02:19:01;;;;;;;2.53;1.48;;;;;;;13.69;100.00;94997.19;5013011;28;24436;-74
2022/05/23 02:21:28;;;;;;;3.60;1.20;;;;;;;13.71;100.00;94995.25;5013848;28;24468;-74
2022/05/23 02:23:54;;;;;;;2.00;1.50;;;;;;;13.74;100.00;94985.41;5012603;28;24989;-74
2022/05/23 02:26:21;;;;;;;3.50;1.70;;;;;;;13.78;100.00;94984.16;5014966;28;24440;-75
2022/05/23 02:28:47;;;;;;;2.55;1.30;;;;;;;13.86;100.00;94973.06;5027261;28;24433;-74
2022/05/23 02:31:14;;;;;;;3.05;1.50;;;;;;;13.87;99.51;94973.91;5012746;28;24866;-74
2022/05/23 02:33:41;;;;;;;2.60;1.50;;;;;;;13.67;100.00;94971.28;5013406;28;24460;-74
2022/05/23 02:36:09;;;;;;;1.43;1.20;;;;;;;13.42;100.00;94959.59;5018296;28;24547;-74
2022/05/23 02:38:36;;;;;;;3.28;1.70;;;;;;;13.54;100.00;94955.13;5027283;28;24448;-74
2022/05/23 02:41:02;;;;;;;1.37;1.20;;;;;;;13.37;100.00;94950.53;5041657;23;25604;-74
2022/05/23 02:43:30;;;;;;;8.07;1.90;;;;;;;13.26;100.00;94941.88;4992694;28;24445;-74
2022/05/23 02:45:56;;;;;;;2.75;1.58;;;;;;;13.10;100.00;94940.72;4992863;28;24473;-74
2022/05/23 02:48:22;;;;;;;2.72;1.55;;;;;;;13.05;100.00;94941.09;4992600;28;24440;-74
2022/05/23 02:50:49;;;;;;;1.77;1.30;;;;;;;13.08;100.00;94933.03;4992733;28;24424;-74
2022/05/23 02:53:17;;;;;;;2.00;1.60;;;;;;;13.13;100.00;94937.88;4992967;28;24420;-74
2022/05/23 02:55:43;;;;;;;3.28;1.70;;;;;;;13.18;100.00;94938.28;4984448;28;24997;-76
2022/05/23 02:58:10;;;;;;;2.90;1.90;;;;;;;13.29;100.00;94941.63;4992959;28;24497;-74
2022/05/23 03:00:38;;;;;;;3.33;2.00;;;;;;;13.38;100.00;94940.00;4991958;28;24531;-74
2022/05/23 03:03:04;;;;;;;5.25;1.70;;;;;;;13.47;100.00;94935.78;4992223;28;24440;-74
2022/05/23 03:05:32;;;;;;;4.47;1.65;;;;;;;13.51;100.00;94934.56;4992488;28;24425;-74
2022/05/23 03:07:58;;;;;;;1.80;1.40;;;;;;;13.51;100.00;94932.78;4992212;28;24864;-74
2022/05/23 03:10:26;;;;;;;2.50;1.50;;;;;;;13.58;100.00;94919.25;4992345;28;25044;-74
2022/05/23 03:12:53;;;;;;;1.73;1.60;;;;;;;13.56;100.00;94924.56;4992384;28;24503;-74
2022/05/23 03:15:20;;;;;;;2.17;1.27;;;;;;;13.54;100.00;94924.72;4992035;28;24868;-74
2022/05/23 03:17:47;;;;;;;3.22;1.60;;;;;;;13.49;100.00;94923.44;4992259;28;24457;-73
2022/05/23 03:20:14;;;;;;;2.65;1.60;;;;;;;13.54;100.00;94922.09;4992169;28;24429;-74
2022/05/23 03:28:10;;;;;;;2.08;1.45;;;;;;;13.58;100.00;94942.66;4991737;28;24444;-74
2022/05/23 03:30:37;;;;;;;1.95;1.38;;;;;;;13.55;100.00;94959.34;4991680;28;24441;-74
2022/05/23 03:33:03;;;;;;;6.38;1.67;;;;;;;13.46;100.00;94966.19;4991918;28;24440;-74
2022/05/23 03:35:32;;;;;;;3.13;1.58;;;;;;;13.48;100.00;94971.25;4991515;28;24439;-74
2022/05/23 03:37:59;;;;;;;5.53;1.67;;;;;;;13.51;100.00;94955.38;4991518;28;24436;-74
2022/05/23 03:40:27;;;;;;;2.00;1.43;;;;;;;13.52;100.00;94963.03;4988671;28;24533;-74
2022/05/23 03:42:54;;;;;;;1.88;1.35;;;;;;;13.51;100.00;94957.97;4991005;28;25237;-74
2022/05/23 03:45:21;;;;;;;1.67;1.58;;;;;;;13.51;100.00;94956.19;4990744;28;24511;-74
2022/05/23 03:47:50;;;;;;;2.15;1.50;;;;;;;13.36;100.00;94967.94;4991116;28;24487;-74
2022/05/23 03:50:16;;;;;;;3.53;1.80;;;;;;;12.95;100.00;94998.25;4990454;28;24444;-74
2022/05/23 03:52:44;;;;;;;2.75;1.83;;;;;;;12.72;100.00;95054.75;4990280;28;24445;-74
2022/05/23 03:55:10;;;;;;;2.95;1.65;;;;;;;12.78;100.00;95054.22;4989686;28;24472;-74
2022/05/23 03:57:38;;;;;;;3.35;2.00;;;;;;;12.88;100.00;95062.09;4989726;28;24823;-74
2022/05/23 04:00:07;;;;;;;2.00;1.70;;;;;;;12.98;100.00;95078.59;4990271;28;24981;-74
2022/05/23 04:02:33;;;;;;;3.60;1.67;;;;;;;13.13;100.00;95093.84;4991054;28;24484;-73
2022/05/23 04:05:00;;;;;;;4.72;2.00;;;;;;;13.35;100.00;95105.88;4990708;28;24973;-74
2022/05/23 04:07:27;;;;;;;1.55;1.35;;;;;;;13.48;100.00;95122.13;4991193;28;24444;-74
2022/05/23 04:09:54;;;;;;;4.15;1.60;;;;;;;13.57;100.00;95131.72;4991239;28;24444;-74
2022/05/23 04:12:20;;;;;;;1.83;1.38;;;;;;;13.65;100.00;95137.13;4990728;28;25037;-75
2022/05/23 04:14:48;;;;;;;1.63;1.50;;;;;;;13.74;100.00;95127.72;4990692;28;24440;-74
2022/05/23 04:17:15;;;;;;;2.38;1.50;;;;;;;14.04;100.00;95119.84;4990997;28;24866;-75
2022/05/23 04:19:41;;;;;;;4.28;1.70;;;;;;;14.08;100.00;95123.00;4991144;28;24441;-74
2022/05/23 04:22:08;;;;;;;15.70;1.80;;;;;;;14.35;100.00;95109.38;4990515;28;25089;-74
2022/05/23 04:24:34;;;;;;;3.40;1.73;;;;;;;14.46;100.00;95116.22;4983343;28;24433;-75
2022/05/23 04:27:01;;;;;;;2.30;1.30;;;;;;;14.13;100.00;95120.03;4989975;28;24507;-76
2022/05/23 04:29:27;;;;;;;2.40;1.50;;;;;;;13.99;100.00;95109.03;4990213;28;24542;-79
2022/05/23 04:31:55;;;;;;;1.77;1.27;;;;;;;14.35;100.00;95090.28;4989596;28;24436;-76
2022/05/23 04:37:13;;;;;;;3.20;1.45;;;;;;;14.52;100.00;95061.00;4954490;28;24531;-76
2022/05/23 04:39:40;;;;;;;5.80;1.63;;;;;;;14.50;100.00;95078.56;4991082;28;24444;-75
2022/05/23 04:42:07;;;;;;;3.05;1.67;;;;;;;13.99;100.00;95097.78;4994894;28;24468;-75
2022/05/23 04:44:33;;;;;;;2.35;1.50;;;;;;;13.76;100.00;95085.00;4993807;28;24448;-75
2022/05/23 04:49:50;;;;;;;3.45;1.63;;;;;;;13.98;100.00;95064.91;4989910;28;24463;-75
2022/05/23 04:52:22;;;;;;;3.97;1.52;;;;;;;14.08;100.00;95044.06;4994842;28;25025;-75
2022/05/23 04:54:49;;;;;;;2.60;1.35;;;;;;;14.17;100.00;95040.69;4995045;28;24424;-73
2022/05/23 04:57:16;;;;;;;2.80;1.63;;;;;;;13.97;100.00;95045.84;4995190;28;24475;-75
2022/05/23 04:59:44;;;;;;;2.03;1.38;;;;;;;13.78;100.00;95049.22;4994814;28;24444;-74
2022/05/23 05:02:12;;;;;;;2.23;1.20;;;;;;;13.87;100.00;95049.38;4994612;28;24460;-75
2022/05/23 05:04:38;;;;;;;1.88;1.45;;;;;;;13.99;100.00;95027.50;4994774;28;24492;-75
2022/05/23 05:07:05;;;;;;;3.13;1.73;;;;;;;14.34;100.00;94994.88;4994974;28;24512;-74
2022/05/23 05:09:32;;;;;;;3.22;1.67;;;;;;;14.64;100.00;94976.50;4994916;28;24521;-74
2022/05/23 05:11:58;;;;;;;3.45;1.95;;;;;;;14.77;100.00;94961.38;4994977;28;24428;-73
2022/05/23 05:14:26;;;;;;;2.90;1.70;;;;;;;14.70;100.00;94946.44;4994476;28;24476;-74
2022/05/23 05:16:52;;;;;;;2.72;1.50;;;;;;;14.68;100.00;94938.78;4994291;28;24449;-74
2022/05/23 05:19:20;;;;;;;3.47;1.93;;;;;;;14.46;100.00;94936.44;4994644;28;24432;-75
2022/05/23 05:21:47;;;;;;;4.93;1.73;;;;;;;14.40;100.00;94940.44;4994324;28;24866;-77
2022/05/23 05:24:13;;;;;;;2.28;1.80;;;;;;;14.64;100.00;94947.81;4994195;28;24599;-75
2022/05/23 05:26:40;;;;;;;4.15;1.80;;;;;;;14.73;100.00;94949.59;4994439;28;24425;-75
2022/05/23 05:29:06;;;;;;;7.03;1.83;;;;;;;14.81;100.00;94948.88;4994556;28;24783;-76
2022/05/23 05:31:40;;;;;;;5.47;1.88;;;;;;;14.86;100.00;94938.84;4994293;28;24429;-76
2022/05/23 05:34:11;;;;;;;4.00;1.80;;;;;;;14.91;100.00;94926.22;4993329;28;24436;-76
2022/05/23 05:36:43;;;;;;;6.60;2.10;;;;;;;14.93;100.00;94918.25;4993908;28;24429;-76
2022/05/23 05:39:10;;;;;;;5.90;1.92;;;;;;;14.98;100.00;94902.97;4993989;28;24501;-76
2022/05/23 05:41:41;;;;;;;4.20;1.95;;;;;;;14.92;100.00;94901.78;4993563;28;24461;-76
2022/05/23 05:44:13;;;;;;;3.55;2.17;;;;;;;15.24;100.00;94917.00;4993542;28;25031;-76
2022/05/23 05:46:43;;;;;;;4.38;1.88;;;;;;;15.27;100.00;94926.31;4994394;28;24814;-73
2022/05/23 05:49:13;;;;;;;3.03;1.67;;;;;;;15.06;100.00;94937.00;4994395;28;24436;-74
2022/05/23 05:51:42;;;;;;;5.22;2.33;;;;;;;14.83;100.00;94936.53;4993937;28;24830;-74
2022/05/23 05:54:14;;;;;;;3.70;1.90;;;;;;;14.96;100.00;94936.22;4993339;28;24448;-73
2022/05/23 05:56:43;;;;;;;3.47;1.88;;;;;;;14.93;100.00;94937.31;4993234;28;24811;-74
2022/05/23 05:59:10;;;;;;;5.30;2.17;;;;;;;14.73;100.00;94930.53;4993845;28;24444;-73
2022/05/23 06:01:36;;;;;;;2.85;1.63;;;;;;;14.76;100.00;94922.44;4993664;28;24507;-74
2022/05/23 06:04:03;;;;;;;3.58;2.05;;;;;;;14.88;100.00;94916.06;4993508;28;24472;-73
2022/05/23 06:11:59;;;;;;;2.40;1.80;;;;;;;15.26;100.00;94909.03;4984324;28;24531;-75
2022/05/23 06:14:25;;;;;;;4.47;1.80;;;;;;;15.18;100.00;94908.94;4992666;28;24436;-71
2022/05/23 06:16:52;;;;;;;9.30;2.57;;;;;;;15.13;100.00;94896.34;4992972;28;24440;-71
2022/05/23 06:19:19;;;;;;;5.43;2.67;;;;;;;15.29;100.00;94884.44;4993303;28;24511;-71
2022/05/23 06:21:46;;;;;;;3.83;2.08;;;;;;;15.31;100.00;94867.66;4993438;28;24503;-71
2022/05/23 06:24:14;;;;;;;5.55;2.35;;;;;;;15.47;100.00;94865.22;4993393;28;24428;-73
2022/05/23 06:26:41;;;;;;;4.32;1.80;;;;;;;15.60;100.00;94859.63;4993345;28;24424;-73
2022/05/23 06:29:08;;;;;;;5.85;2.08;;;;;;;15.58;100.00;94855.53;4993154;28;24496;-73
2022/05/23 06:31:34;;;;;;;3.60;1.98;;;;;;;15.61;100.00;94861.28;4993178;28;24466;-73
2022/05/23 06:34:01;;;;;;;4.80;2.43;;;;;;;15.65;100.00;94861.81;4992598;28;24448;-73
2022/05/23 06:36:27;;;;;;;6.28;2.90;;;;;;;15.71;100.00;94869.06;4992664;28;24459;-75
2022/05/23 06:38:54;;;;;;;8.80;3.05;;;;;;;15.76;100.00;94868.59;4993021;28;24969;-75
2022/05/23 06:41:21;;;;;;;3.67;2.67;;;;;;;15.85;100.00;94855.47;4991168;28;24449;-74
2022/05/23 06:43:48;;;;;;;5.75;2.80;;;;;;;15.63;100.00;94869.78;4992710;28;24479;-74
2022/05/23 06:46:15;;;;;;;2.47;1.93;;;;;;;15.68;100.00;94885.00;4991014;28;24433;-73
2022/05/23 06:48:42;;;;;;;3.83;2.00;;;;;;;15.72;100.00;94870.69;4992430;28;24516;-73
2022/05/23 06:51:09;;;;;;;5.80;2.17;;;;;;;15.80;100.00;94868.19;4991047;28;24429;-75
2022/05/23 06:53:36;;;;;;;5.30;2.17;;;;;;;15.49;100.00;94868.50;4992287;28;24523;-73
2022/05/23 06:56:02;;;;;;;5.78;2.35;;;;;;;15.68;100.00;94858.91;4992509;28;24472;-72
2022/05/23 06:58:30;;;;;;;5.45;2.13;;;;;;;15.72;100.00;94853.25;4992853;28;24428;-73
2022/05/23 07:00:57;;;;;;;3.65;1.95;;;;;;;15.89;100.00;94856.00;4992115;28;24440;-73
2022/05/23 07:03:24;;;;;;;5.32;2.40;;;;;;;15.91;100.00;94849.66;4991286;28;24859;-72
2022/05/23 07:14:14;;;;;;;3.80;2.00;;;;;;;15.88;100.00;94863.03;4926819;28;24519;-74
2022/05/23 07:16:40;;;;;;;2.55;1.70;;;;;;;16.06;100.00;94857.78;4972841;28;24481;-74
2022/05/23 07:19:07;;;;;;;3.83;1.92;;;;;;;16.03;100.00;94854.66;4973039;28;24426;-74
2022/05/23 07:21:33;;;;;;;3.20;2.00;;;;;;;16.06;100.00;94883.91;4972852;28;24430;-74
2022/05/23 07:24:00;;;;;;;4.37;1.90;;;;;;;16.01;100.00;94872.25;4973002;28;24531;-74
2022/05/23 07:26:27;;;;;;;3.83;2.10;;;;;;;16.03;100.00;94862.47;4972941;28;24441;-74
2022/05/23 07:28:54;;;;;;;4.22;2.20;;;;;;;16.12;100.00;94853.72;4973292;28;24424;-74
2022/05/23 07:31:23;;;;;;;4.07;2.40;;;;;;;16.32;100.00;94856.97;4972591;28;24426;-74
2022/05/23 07:33:49;;;;;;;6.70;2.22;;;;;;;16.24;100.00;94868.19;4985148;28;24440;-74
2022/05/23 07:36:17;;;;;;;5.05;2.38;;;;;;;16.26;100.00;94863.63;4972390;28;24421;-74
2022/05/23 07:38:43;;;;;;;9.88;2.83;;;;;;;16.50;100.00;94868.19;4972780;28;24440;-72
2022/05/23 07:41:12;;;;;;;4.07;2.30;;;;;;;16.64;100.00;94870.22;4972388;28;24429;-72
2022/05/23 07:43:41;;;;;;;2.75;2.05;;;;;;;16.94;100.00;94868.09;4972864;28;24443;-72
2022/05/23 07:46:10;;;;;;;2.85;2.47;;;;;;;16.86;100.00;94875.91;4991588;28;24962;-72
2022/05/23 07:48:39;;;;;;;4.70;2.53;;;;;;;16.90;100.00;94874.63;4991704;28;24425;-72
2022/05/23 07:51:06;;;;;;;3.65;2.17;;;;;;;16.99;100.00;94871.06;4991423;28;24437;-72
2022/05/23 08:01:47;;;;;;;3.75;2.45;;;;;;;17.20;100.00;94860.19;4991403;28;24436;-72
2022/05/23 08:04:14;;;;;;;3.88;2.60;;;;;;;16.86;100.00;94849.75;4991581;28;25014;-72
2022/05/23 08:06:41;;;;;;;3.47;2.50;;;;;;;16.74;100.00;94851.03;4991619;28;24432;-72
2022/05/23 08:09:09;;;;;;;3.78;2.25;;;;;;;16.81;100.00;94846.81;4991681;28;24428;-72
2022/05/23 08:11:40;;;;;;;3.53;2.10;;;;;;;16.86;100.00;94840.13;4991329;28;24432;-73
2022/05/23 08:14:07;;;;;;;9.98;2.25;;;;;;;16.82;100.00;94836.19;4991374;28;24424;-74
2022/05/23 08:16:35;;;;;;;6.90;2.47;;;;;;;17.01;100.00;94821.22;4991372;28;24444;-73
2022/05/23 08:19:02;;;;;;;4.40;1.95;;;;;;;17.18;100.00;94822.91;4991590;28;24487;-73
2022/05/23 08:21:30;;;;;;;8.18;2.55;;;;;;;17.11;100.00;94824.53;4980461;28;24532;-73
2022/05/23 08:23:56;;;;;;;3.87;2.30;;;;;;;17.23;100.00;94818.00;4991296;28;24452;-73
2022/05/23 08:26:25;;;;;;;5.70;2.53;;;;;;;17.28;100.00;94809.66;4990871;28;24437;-73
2022/05/23 08:28:51;;;;;;;7.30;2.58;;;;;;;17.31;100.00;94804.13;4991081;28;25025;-73
2022/05/23 08:31:18;;;;;;;8.00;2.40;;;;;;;17.45;100.00;94803.47;4991115;28;24433;-73
2022/05/23 08:33:45;;;;;;;3.55;2.20;;;;;;;17.50;100.00;94797.75;4991068;28;24448;-73
2022/05/23 08:36:12;;;;;;;4.22;2.03;;;;;;;17.42;100.00;94799.38;4990958;28;24425;-73
2022/05/23 08:38:39;;;;;;;6.78;2.20;;;;;;;17.44;100.00;94799.25;4991131;28;25137;-73
2022/05/23 08:41:17;;;;;;;5.38;2.20;;;;;;;17.39;100.00;94791.88;4977374;28;24997;-74
2022/05/23 08:43:51;;;;;;;3.47;1.95;;;;;;;17.47;100.00;94796.31;4971617;28;24799;-74
2022/05/23 08:46:23;;;;;;;5.85;2.30;;;;;;;17.39;100.00;94780.56;4971627;28;24421;-74
2022/05/23 08:49:01;;;;;;;2.57;2.00;;;;;;;17.33;100.00;94776.00;4971018;28;24513;-74
2022/05/23 08:51:36;;;;;;;5.60;2.28;;;;;;;17.23;100.00;94806.72;4970736;28;24433;-74
2022/05/23 08:54:16;;;;;;;8.85;3.20;;;;;;;17.16;100.00;94815.19;4970748;28;25030;-73
2022/05/23 08:56:47;;;;;;;4.00;2.50;;;;;;;17.21;100.00;94806.06;4989593;28;24444;-74
2022/05/23 08:59:21;;;;;;;3.10;2.20;;;;;;;17.41;100.00;94812.63;4990858;28;24860;-74
2022/05/23 09:01:51;;;;;;;4.10;2.27;;;;;;;17.47;100.00;94798.91;4983899;28;24532;-73
2022/05/23 09:04:29;;;;;;;6.55;2.28;;;;;;;17.46;100.00;94796.44;4983299;28;24445;-73
2022/05/23 09:06:58;;;;;;;3.05;1.92;;;;;;;17.41;100.00;94799.56;4982425;28;24444;-73
2022/05/23 09:09:29;;;;;;;3.03;2.05;;;;;;;17.42;100.00;94790.72;4990699;28;24495;-73
2022/05/23 09:12:03;;;;;;;3.83;2.15;;;;;;;17.48;100.00;94786.63;4990653;28;24500;-72
2022/05/23 09:14:30;;;;;;;9.10;2.40;;;;;;;17.54;100.00;94807.75;4990872;28;24511;-72
2022/05/23 09:16:58;;;;;;;4.95;2.65;;;;;;;17.53;100.00;94800.88;4990407;28;24455;-73
2022/05/23 09:19:32;;;;;;;4.38;2.50;;;;;;;17.58;100.00;94787.31;4990233;28;24444;-72
2022/05/23 09:22:14;;;;;;;5.97;2.10;;;;;;;17.71;100.00;94779.78;4990514;28;24440;-72
2022/05/23 09:24:46;;;;;;;7.75;2.70;;;;;;;17.80;100.00;94778.00;4990384;28;24428;-75
2022/05/23 09:27:18;;;;;;;3.40;1.90;;;;;;;17.84;100.00;94772.28;4974918;28;24505;-74
2022/05/23 09:29:50;;;;;;;3.97;2.30;;;;;;;17.85;100.00;94768.66;4974975;28;24429;-73
2022/05/23 09:32:18;;;;;;;4.43;2.20;;;;;;;17.97;100.00;94761.28;4985838;28;25040;-75
2022/05/23 09:34:48;;;;;;;6.87;2.27;;;;;;;18.27;100.00;94770.22;4993738;28;24436;-74
2022/05/23 09:37:20;;;;;;;3.47;2.13;;;;;;;18.42;100.00;94769.53;4994095;28;24417;-75
2022/05/23 09:39:54;;;;;;;4.35;2.42;;;;;;;18.77;100.00;94781.41;4993899;28;25040;-74
2022/05/23 09:48:08;;;;;;;6.07;2.28;;;;;;;19.69;99.91;94776.28;4993454;28;24479;-75
2022/05/23 09:50:38;;;;;;;5.53;2.30;;;;;;;19.50;100.00;94785.41;4993976;28;25002;-75
2022/05/23 09:53:06;;;;;;;6.22;2.40;;;;;;;19.48;99.63;94798.72;4993196;28;24437;-74
2022/05/23 09:55:37;;;;;;;6.10;2.25;;;;;;;19.47;100.00;94809.41;4993477;28;24438;-74
2022/05/23 09:58:07;;;;;;;2.53;1.90;;;;;;;19.46;100.00;94824.34;4993571;28;24492;-75
2022/05/23 10:00:37;;;;;;;3.45;1.75;;;;;;;19.48;100.00;94819.72;4993699;28;24433;-74
2022/05/23 10:03:13;;;;;;;4.30;2.13;;;;;;;19.42;100.00;94809.09;4993491;28;24607;-73
2022/05/23 10:05:43;;;;;;;3.90;1.98;;;;;;;19.40;100.00;94809.28;4992359;28;24441;-74
2022/05/23 10:08:12;;;;;;;5.10;2.40;;;;;;;19.31;100.00;94805.06;4993441;28;24444;-77
2022/05/23 10:10:53;;;;;;;5.82;2.33;;;;;;;19.29;100.00;94812.31;4993025;28;24468;-74
2022/05/23 10:13:28;;;;;;;4.90;2.37;;;;;;;19.26;100.00;94815.28;4993434;28;24440;-74
2022/05/23 10:15:58;;;;;;;4.72;2.13;;;;;;;19.27;100.00;94807.22;4985764;28;24850;-74
2022/05/23 10:18:29;;;;;;;4.18;1.55;;;;;;;19.30;100.00;94816.56;4993400;28;24441;-74
2022/05/23 10:20:56;;;;;;;3.75;1.92;;;;;;;19.31;100.00;94831.31;4993287;28;24463;-75
2022/05/23 10:23:26;;;;;;;3.50;2.30;;;;;;;19.27;100.00;94822.97;4992938;28;24453;-74
2022/05/23 10:26:02;;;;;;;3.45;2.13;;;;;;;19.40;100.00;94825.03;4993588;28;24479;-75
2022/05/23 10:28:36;;;;;;;3.65;2.28;;;;;;;19.48;100.00;94832.06;4993423;28;24513;-74
2022/05/23 10:31:07;;;;;;;6.13;2.63;;;;;;;19.51;100.00;94837.78;4993106;28;24803;-74
2022/05/23 10:33:35;;;;;;;6.65;2.15;;;;;;;19.52;100.00;94842.03;4992523;28;24431;-76
2022/05/23 10:36:06;;;;;;;5.23;2.10;;;;;;;19.54;100.00;94847.09;4993107;28;24412;-75
2022/05/23 10:44:24;;;;;;;13.10;2.30;;;;;;;19.44;100.00;94855.22;4982576;28;24515;-73
2022/05/23 10:46:58;;;;;;;4.90;2.45;;;;;;;19.19;100.00;94882.56;4992995;28;24424;-75
2022/05/23 10:49:37;;;;;;;12.38;2.22;;;;;;;19.06;100.00;94899.69;4996554;28;24830;-74
2022/05/23 10:52:13;;;;;;;4.47;2.53;;;;;;;18.93;100.00;94898.59;4993762;28;24452;-73
2022/05/23 10:54:53;;;;;;;4.93;2.47;;;;;;;18.81;100.00;94908.63;4992452;28;24456;-73
2022/05/23 10:57:38;;;;;;;3.33;2.20;;;;;;;18.64;100.00;94913.03;4990761;28;24444;-73
2022/05/23 11:00:08;;;;;;;3.45;2.17;;;;;;;18.56;100.00;94921.75;4992548;28;24433;-73
2022/05/23 11:02:47;;;;;;;6.97;2.70;;;;;;;18.54;100.00;94928.13;4992445;28;24432;-73
2022/05/23 11:05:22;;;;;;;8.52;2.40;;;;;;;18.43;100.00;94931.94;4991349;28;22272;-73
2022/05/23 11:08:07;;;;;;;5.13;2.50;;;;;;;18.32;100.00;94937.50;4992120;28;24521;-73
2022/05/23 11:10:41;;;;;;;6.20;2.45;;;;;;;18.27;100.00;94945.00;4992415;28;24429;-75
2022/05/23 11:13:20;;;;;;;3.90;2.80;;;;;;;18.23;100.00;94944.53;4978735;28;25011;-73
2022/05/23 11:16:02;;;;;;;4.15;2.35;;;;;;;18.19;100.00;94939.78;4992106;28;24977;-72
2022/05/23 11:18:41;;;;;;;6.37;2.40;;;;;;;18.20;100.00;94949.28;4992061;28;24491;-74
2022/05/23 11:21:11;;;;;;;9.00;3.05;;;;;;;18.16;100.00;94943.53;4991904;28;24445;-75
2022/05/23 11:23:42;;;;;;;7.65;3.15;;;;;;;18.14;100.00;94935.03;4991578;28;24459;-75
2022/05/23 11:26:14;;;;;;;4.85;2.63;;;;;;;18.28;100.00;94926.53;4991997;28;24448;-74
2022/05/23 11:34:30;;;;;;;6.53;3.08;;;;;;;17.92;100.00;94949.56;4991889;28;25001;-74
2022/05/23 11:37:09;;;;;;;7.38;3.33;;;;;;;18.28;100.00;94908.19;4992047;28;24420;-74
2022/05/23 11:39:47;;;;;;;5.50;3.22;;;;;;;17.99;100.00;94874.59;4991832;28;24440;-71
2022/05/23 11:42:16;;;;;;;6.03;3.20;;;;;;;18.09;100.00;94856.88;4991544;28;24428;-73
2022/05/23 11:47:52;;;;;;;6.38;2.95;;;;;;;17.92;100.00;94783.72;4982262;28;24579;-74
2022/05/23 11:50:24;;;;;;;5.80;2.67;;;;;;;18.03;100.00;94750.16;4991811;28;24437;-73
2022/05/23 11:53:04;;;;;;;6.25;3.08;;;;;;;18.10;100.00;94708.38;4991651;28;24434;-76
2022/05/23 11:56:03;;;;;;;7.10;3.28;;;;;;;18.18;100.00;94694.44;4991427;28;24519;-74
2022/05/23 11:58:44;;;;;;;9.35;3.60;;;;;;;18.20;100.00;94651.31;4947257;28;24422;-75
2022/05/23 12:01:22;;;;;;;6.25;3.33;;;;;;;17.86;100.00;94625.41;4980705;28;24465;-73
2022/05/23 12:04:14;;;;;;;8.40;3.47;;;;;;;17.84;100.00;94593.38;4991378;28;24444;-72
2022/05/23 12:06:42;;;;;;;8.05;3.75;;;;;;;17.82;100.00;94551.59;4977591;28;24488;-73
2022/05/23 12:09:27;;;;;;;6.20;3.38;;;;;;;17.79;100.00;94512.66;4991461;28;24499;-72
2022/05/23 12:12:44;;;;;;;10.00;4.38;;;;;;;17.81;100.00;94507.28;4991342;28;24803;-72
2022/05/23 12:15:48;;;;;;;7.35;3.75;;;;;;;17.18;100.00;94519.41;4990788;28;24528;-73
2022/05/23 12:18:39;;;;;;;8.75;3.40;;;;;;;17.12;100.00;94586.28;4989359;28;24862;-74
2022/05/23 12:21:20;;;;;;;6.82;3.72;;;;;;;17.15;100.00;94600.84;4976310;28;24449;-74
2022/05/23 12:23:47;;;;;;;6.78;3.13;;;;;;;17.10;100.00;94618.84;4990954;28;25036;-73
2022/05/23 12:26:26;;;;;;;11.32;3.42;;;;;;;16.95;100.00;94623.09;4991562;28;24460;-73
2022/05/23 12:28:56;;;;;;;6.28;3.65;;;;;;;17.09;100.00;94625.88;4991229;28;24516;-74
2022/05/23 12:31:27;;;;;;;7.43;3.45;;;;;;;17.25;100.00;94637.31;4991357;28;25161;-76
2022/05/23 12:34:07;;;;;;;6.45;3.20;;;;;;;17.49;100.00;94647.72;4991550;28;24437;-75
2022/05/23 12:36:37;;;;;;;10.80;3.85;;;;;;;17.68;100.00;94651.78;4990753;28;24479;-74
2022/05/23 12:39:33;;;;;;;5.90;3.40;;;;;;;17.84;100.00;94666.69;4990699;28;24516;-71
2022/05/23 12:42:07;;;;;;;7.35;3.25;;;;;;;17.94;100.00;94672.53;4976169;28;24445;-71